Time;durP1;ratioP1;P1;durP2;ratioP2;P2;SDS_P1;SDS_P2;PMS_P1;PMS_P2;Temp;Humidity;BMP_temperature;BMP_pressure;BME280_temperature;BME280_humidity;BME280_pressure;Samples;Min_cycle;Max_cycle;Signal;HPM_P1;HPM_P2
2021/11/02 00:01:38;;;;;;;11.15;4.72;;;5.70;99.90;;;;;;5014524;28;20373;-85
2021/11/02 00:04:05;;;;;;;7.30;3.53;;;5.70;99.90;;;;;;4997798;28;20072;-85
2021/11/02 00:06:31;;;;;;;4.68;3.20;;;5.60;99.90;;;;;;5014421;28;20072;-86
2021/11/02 00:08:57;;;;;;;7.35;3.53;;;5.60;99.90;;;;;;5030831;28;20120;-85
2021/11/02 00:11:23;;;;;;;8.23;3.13;;;5.60;99.90;;;;;;4997747;28;20129;-85
2021/11/02 00:13:51;;;;;;;8.85;3.28;;;5.60;99.90;;;;;;4997522;28;20038;-85
2021/11/02 00:16:19;;;;;;;9.30;3.13;;;5.50;99.90;;;;;;5014053;28;20041;-86
2021/11/02 00:18:48;;;;;;;10.07;3.33;;;5.50;99.90;;;;;;5013570;28;20053;-85
2021/11/02 00:21:15;;;;;;;5.63;3.17;;;5.50;99.90;;;;;;4998347;28;20095;-85
2021/11/02 00:23:41;;;;;;;15.45;4.10;;;5.50;99.90;;;;;;4997515;28;20080;-85
2021/11/02 00:26:13;;;;;;;6.85;3.97;;;5.50;99.90;;;;;;4997252;28;20275;-86
2021/11/02 00:28:40;;;;;;;11.85;3.22;;;5.50;99.90;;;;;;5013887;28;20088;-85
2021/11/02 00:31:06;;;;;;;8.40;3.55;;;5.50;99.90;;;;;;5013632;28;20049;-85
2021/11/02 00:33:32;;;;;;;5.85;3.22;;;5.40;99.90;;;;;;5014067;28;20372;-85
2021/11/02 00:35:58;;;;;;;10.30;3.67;;;5.40;99.90;;;;;;4981106;28;20041;-84
2021/11/02 00:38:27;;;;;;;9.73;3.45;;;5.40;99.90;;;;;;5013711;28;20327;-85
2021/11/02 00:40:52;;;;;;;4.70;3.20;;;5.40;99.90;;;;;;4997019;28;20053;-85
2021/11/02 00:43:18;;;;;;;8.88;3.55;;;5.40;99.90;;;;;;4997690;28;20049;-86
2021/11/02 00:45:44;;;;;;;8.65;3.83;;;5.30;99.90;;;;;;4997562;28;20037;-85
2021/11/02 00:48:12;;;;;;;11.50;4.00;;;5.30;99.90;;;;;;5013345;28;20473;-85
2021/11/02 00:50:40;;;;;;;6.22;3.05;;;5.30;99.90;;;;;;4997185;28;20049;-85
2021/11/02 00:53:07;;;;;;;10.23;3.83;;;5.30;99.90;;;;;;4996944;28;20366;-85
2021/11/02 00:55:33;;;;;;;6.50;3.55;;;5.30;99.90;;;;;;5013405;28;20124;-85
2021/11/02 00:58:02;;;;;;;12.52;3.47;;;5.40;99.90;;;;;;4997234;28;20041;-85
2021/11/02 01:00:28;;;;;;;15.05;4.30;;;5.30;99.90;;;;;;4997444;28;20045;-85
2021/11/02 01:02:54;;;;;;;7.93;3.83;;;5.30;99.90;;;;;;4980556;28;20095;-85
2021/11/02 01:05:19;;;;;;;10.07;3.58;;;5.40;99.90;;;;;;5013629;28;20038;-85
2021/11/02 01:07:45;;;;;;;9.38;5.32;;;5.50;99.90;;;;;;4981018;28;20715;-85
2021/11/02 01:10:16;;;;;;;11.50;4.10;;;5.40;99.90;;;;;;4996951;28;20041;-85
2021/11/02 01:12:47;;;;;;;11.95;3.45;;;5.40;99.90;;;;;;4998136;28;20132;-85
2021/11/02 01:15:22;;;;;;;9.13;3.78;;;5.40;99.90;;;;;;4996897;28;20049;-85
2021/11/02 01:17:48;;;;;;;7.63;4.03;;;5.30;99.90;;;;;;4996939;28;20041;-85
2021/11/02 01:20:15;;;;;;;14.23;4.55;;;5.30;99.90;;;;;;5014427;28;20084;-85
2021/11/02 01:22:43;;;;;;;8.43;4.47;;;5.40;99.90;;;;;;5001402;28;20409;-85
2021/11/02 01:25:09;;;;;;;8.98;4.28;;;5.30;99.90;;;;;;4983656;28;20045;-85
2021/11/02 01:27:35;;;;;;;19.77;5.05;;;5.30;99.90;;;;;;4984969;28;20041;-85
2021/11/02 01:30:02;;;;;;;15.65;4.78;;;5.40;99.90;;;;;;5000585;28;20041;-85
2021/11/02 01:32:27;;;;;;;11.13;4.20;;;5.40;99.90;;;;;;5001143;28;20075;-86
2021/11/02 01:34:53;;;;;;;7.78;4.60;;;5.40;99.90;;;;;;4984609;28;20158;-87
2021/11/02 01:37:19;;;;;;;9.98;4.72;;;5.30;99.90;;;;;;5000776;28;20049;-85
2021/11/02 01:39:44;;;;;;;13.77;4.65;;;5.30;99.90;;;;;;5000813;28;20049;-85
2021/11/02 01:42:10;;;;;;;16.05;4.93;;;5.30;99.90;;;;;;5000464;28;20136;-85
2021/11/02 01:44:36;;;;;;;10.88;4.18;;;5.30;99.90;;;;;;5017177;28;20049;-85
2021/11/02 01:47:04;;;;;;;9.15;3.67;;;5.30;99.90;;;;;;5016548;28;20049;-86
2021/11/02 01:49:30;;;;;;;7.20;4.07;;;5.20;99.90;;;;;;5000795;28;20037;-85
2021/11/02 01:51:56;;;;;;;13.18;4.22;;;5.20;99.90;;;;;;5016564;28;20159;-85
2021/11/02 01:54:22;;;;;;;5.70;3.60;;;5.20;99.90;;;;;;5017028;28;20497;-84
2021/11/02 01:56:50;;;;;;;7.30;4.50;;;5.30;99.90;;;;;;5000623;28;20041;-85
2021/11/02 01:59:21;;;;;;;29.50;4.68;;;5.30;99.90;;;;;;5016427;28;20048;-86
2021/11/02 02:01:51;;;;;;;;;;;5.30;99.90;;;;;;5017268;28;20128;-86
2021/11/02 02:04:23;;;;;;;7.32;4.10;;;5.30;99.90;;;;;;5000005;28;20565;-86
2021/11/02 02:07:07;;;;;;;13.57;4.68;;;5.30;99.90;;;;;;5000263;28;20049;-85
2021/11/02 02:09:53;;;;;;;10.35;4.32;;;5.40;99.90;;;;;;4999964;28;20033;-85
2021/11/02 02:12:41;;;;;;;7.13;4.50;;;5.40;99.90;;;;;;5000023;28;20057;-86
2021/11/02 02:15:23;;;;;;;14.55;4.55;;;5.40;99.90;;;;;;4999804;28;20510;-85
2021/11/02 02:18:05;;;;;;;13.10;4.57;;;5.40;99.90;;;;;;5016516;28;20049;-86
2021/11/02 02:21:09;;;;;;;11.30;4.53;;;5.40;99.90;;;;;;5016280;28;20049;-86
2021/11/02 02:24:12;;;;;;;12.35;4.80;;;5.40;99.90;;;;;;4999890;28;20137;-85
2021/11/02 02:26:54;;;;;;;17.00;4.90;;;5.40;99.90;;;;;;5000118;28;20136;-86
2021/11/02 02:29:23;;;;;;;9.10;4.45;;;5.40;99.90;;;;;;4999410;28;20052;-85
2021/11/02 02:31:52;;;;;;;16.85;4.55;;;5.40;99.90;;;;;;5015733;28;20041;-85
2021/11/02 02:34:20;;;;;;;16.38;4.80;;;5.40;99.90;;;;;;5015873;28;20056;-85
2021/11/02 02:36:50;;;;;;;8.73;4.20;;;5.40;99.90;;;;;;4999948;28;20092;-85
2021/11/02 02:39:17;;;;;;;8.27;4.60;;;5.40;99.90;;;;;;4999471;28;20050;-85
2021/11/02 02:41:44;;;;;;;13.77;4.68;;;5.40;99.90;;;;;;4999824;28;20045;-86
2021/11/02 02:44:11;;;;;;;14.90;4.60;;;5.40;99.90;;;;;;4999516;28;20041;-86
2021/11/02 02:46:38;;;;;;;7.63;4.50;;;5.40;99.90;;;;;;4999746;28;20041;-85
2021/11/02 02:49:06;;;;;;;17.38;4.95;;;5.50;99.90;;;;;;4998936;28;20136;-86
2021/11/02 02:51:34;;;;;;;17.00;4.78;;;5.40;99.90;;;;;;5015601;28;20048;-85
2021/11/02 02:54:01;;;;;;;11.48;4.28;;;5.40;99.90;;;;;;5015526;28;20052;-86
2021/11/02 02:56:29;;;;;;;11.25;4.55;;;5.40;99.90;;;;;;4983539;28;20070;-86
2021/11/02 02:59:00;;;;;;;9.98;4.28;;;5.40;99.90;;;;;;5015623;28;20053;-86
2021/11/02 03:01:27;;;;;;;9.27;4.82;;;5.40;99.90;;;;;;5000083;28;20045;-85
2021/11/02 03:04:26;;;;;;;13.15;4.40;;;5.40;99.90;;;;;;4983109;28;20045;-86
2021/11/02 03:06:53;;;;;;;14.77;4.53;;;5.50;99.90;;;;;;4988015;28;20088;-85
2021/11/02 03:09:20;;;;;;;7.18;3.92;;;5.50;99.90;;;;;;5014872;28;20042;-86
2021/11/02 03:11:46;;;;;;;12.13;4.40;;;5.50;99.90;;;;;;4983041;28;20427;-85
2021/11/02 03:14:19;;;;;;;20.77;4.97;;;5.50;99.90;;;;;;4998625;28;20128;-85
2021/11/02 03:49:40;;;;;;;;;;;5.20;99.90;;;;;;5014681;28;20053;-85
2021/11/02 03:54:52;;;;;;;11.23;5.20;;;5.20;99.90;;;;;;5014540;28;20536;-85
2021/11/02 04:00:20;;;;;;;;;;;5.20;99.90;;;;;;5015174;28;20045;-85
2021/11/02 04:28:24;;;;;;;19.70;7.28;;;5.10;99.90;;;;;;5013778;28;20064;-86
2021/11/02 05:50:52;;;;;;;23.55;10.00;;;4.60;99.90;;;;;;4996877;28;20045;-85
2021/11/02 05:58:37;;;;;;;21.77;10.95;;;4.60;99.90;;;;;;4998775;28;20099;-85
2021/11/02 06:03:45;;;;;;;24.15;9.90;;;4.50;99.90;;;;;;4996609;28;20041;-86
2021/11/02 06:06:41;;;;;;;29.17;10.60;;;4.50;99.90;;;;;;4983591;28;20528;-85
2021/11/02 06:09:23;;;;;;;25.33;9.82;;;4.40;99.90;;;;;;4999774;28;20044;-86
2021/11/02 06:29:03;;;;;;;25.75;9.82;;;4.30;99.90;;;;;;5015929;28;20041;-85
2021/11/02 06:31:33;;;;;;;20.25;10.27;;;4.30;99.90;;;;;;4999561;28;20043;-85
2021/11/02 06:55:21;;;;;;;29.23;13.05;;;4.40;99.90;;;;;;5015604;28;20468;-85
2021/11/02 07:00:39;;;;;;;;;;;4.40;99.90;;;;;;5015979;28;20049;-85
2021/11/02 07:28:01;;;;;;;33.95;13.52;;;4.60;99.90;;;;;;5014410;28;20053;-85
2021/11/02 08:48:15;;;;;;;;;;;6.90;99.90;;;;;;5013963;28;20041;-82
2021/11/02 08:50:43;;;;;;;57.45;24.92;;;6.80;99.90;;;;;;5013311;28;19916;-83
2021/11/02 08:53:11;;;;;;;51.63;25.15;;;6.90;99.90;;;;;;4981442;28;20132;-83
2021/11/02 08:55:40;;;;;;;57.90;24.90;;;7.00;99.90;;;;;;5013342;28;20045;-83
2021/11/02 08:58:05;;;;;;;51.45;24.88;;;7.10;99.90;;;;;;5030059;28;20045;-83
2021/11/02 09:00:33;;;;;;;57.40;24.55;;;7.10;99.90;;;;;;4994949;28;20551;-87
2021/11/02 09:03:22;;;;;;;48.97;23.27;;;7.20;99.90;;;;;;5010987;28;20128;-86
2021/11/02 09:05:56;;;;;;;43.78;23.15;;;7.20;99.90;;;;;;5011423;28;20049;-84
2021/11/02 09:08:24;;;;;;;33.90;19.33;;;7.20;99.90;;;;;;5013498;28;20041;-82
2021/11/02 09:10:49;;;;;;;39.45;20.48;;;7.20;99.90;;;;;;5030871;28;20343;-83
2021/11/02 09:13:16;;;;;;;38.10;19.35;;;7.30;99.90;;;;;;5013901;28;20136;-84
2021/11/02 09:15:44;;;;;;;29.35;17.60;;;7.40;99.90;;;;;;5030484;28;20500;-82
2021/11/02 09:18:11;;;;;;;27.17;16.38;;;7.40;99.90;;;;;;5030886;28;20064;-84
2021/11/02 09:20:38;;;;;;;38.53;18.27;;;7.40;99.90;;;;;;4995488;28;20037;-84
2021/11/02 09:23:06;;;;;;;33.85;18.42;;;7.50;99.90;;;;;;5012675;28;20126;-85
2021/11/02 09:25:34;;;;;;;30.02;16.92;;;7.50;99.90;;;;;;5012956;28;20053;-89
2021/11/02 09:28:00;;;;;;;28.27;16.23;;;7.50;99.90;;;;;;5030736;28;20135;-84
2021/11/02 09:30:26;;;;;;;26.48;15.68;;;7.60;99.90;;;;;;5013656;28;20490;-84
2021/11/02 09:32:55;;;;;;;23.38;15.65;;;7.70;99.90;;;;;;4996706;28;20243;-83
2021/11/02 09:35:26;;;;;;;25.80;16.67;;;7.70;99.90;;;;;;5030841;28;20052;-83
2021/11/02 09:38:07;;;;;;;28.02;17.08;;;7.70;99.90;;;;;;5012908;28;20611;-83
2021/11/02 09:41:06;;;;;;;31.50;16.85;;;7.80;99.90;;;;;;5013517;28;20132;-88
2021/11/02 09:44:08;;;;;;;28.65;16.23;;;7.90;99.90;;;;;;5016435;28;20060;-83
2021/11/02 09:46:59;;;;;;;28.95;15.77;;;8.10;99.90;;;;;;5000312;28;20046;-87
2021/11/02 09:49:55;;;;;;;23.00;15.75;;;8.10;99.90;;;;;;5016792;28;20128;-88
2021/11/02 09:52:46;;;;;;;38.85;16.17;;;8.20;99.90;;;;;;5017157;28;20423;-83
2021/11/02 09:55:41;;;;;;;27.90;16.35;;;8.30;99.90;;;;;;5017028;28;20183;-83
2021/11/02 09:58:24;;;;;;;24.05;14.13;;;8.40;99.90;;;;;;5016970;28;20045;-83
2021/11/02 10:00:54;;;;;;;21.38;14.85;;;8.50;99.90;;;;;;5013754;28;20045;-85
2021/11/02 10:03:47;;;;;;;23.20;14.70;;;8.60;99.90;;;;;;5014957;28;20084;-83
2021/11/02 10:06:52;;;;;;;24.80;15.13;;;8.50;99.90;;;;;;5011506;28;20548;-84
2021/11/02 10:09:55;;;;;;;29.58;15.57;;;8.70;99.90;;;;;;4998030;28;20124;-83
2021/11/02 10:12:24;;;;;;;26.00;15.18;;;8.70;99.90;;;;;;5032473;28;20041;-83
2021/11/02 10:15:10;;;;;;;20.02;12.95;;;8.80;99.90;;;;;;5014140;28;20088;-83
2021/11/02 10:18:07;;;;;;;19.92;13.20;;;8.80;99.90;;;;;;5014316;28;20205;-89
2021/11/02 10:21:10;;;;;;;16.75;12.60;;;8.90;99.90;;;;;;5014275;28;20045;-84
2021/11/02 10:24:00;;;;;;;20.73;13.75;;;8.90;99.90;;;;;;5014129;28;20068;-87
2021/11/02 10:26:43;;;;;;;20.17;13.10;;;9.00;99.90;;;;;;5014503;28;20060;-83
2021/11/02 10:29:21;;;;;;;17.75;12.13;;;9.00;99.90;;;;;;5014097;28;20049;-83
2021/11/02 10:31:52;;;;;;;18.73;13.07;;;9.10;99.90;;;;;;5013712;28;20051;-86
2021/11/02 10:34:44;;;;;;;23.10;12.82;;;9.10;99.90;;;;;;4998117;28;20138;-84
2021/11/02 10:37:37;;;;;;;22.05;13.02;;;9.20;99.90;;;;;;4997929;28;20095;-84
2021/11/02 10:40:28;;;;;;;23.58;13.50;;;9.40;99.90;;;;;;4997808;28;20057;-88
2021/11/02 10:43:22;;;;;;;21.45;12.57;;;9.50;99.90;;;;;;5013384;28;20049;-84
2021/11/02 10:45:55;;;;;;;20.33;12.07;;;9.60;99.90;;;;;;4996956;28;20120;-85
2021/11/02 10:48:29;;;;;;;16.80;10.95;;;9.70;99.90;;;;;;5031695;28;20132;-84
2021/11/02 10:51:03;;;;;;;22.40;12.05;;;9.80;99.90;;;;;;4996981;28;20049;-84
2021/11/02 10:53:32;;;;;;;15.80;12.10;;;9.90;99.90;;;;;;5013859;28;20136;-84
2021/11/02 10:56:08;;;;;;;17.40;10.90;;;9.90;99.90;;;;;;5031089;28;20049;-82
2021/11/02 10:58:49;;;;;;;15.98;11.20;;;9.90;99.90;;;;;;5031526;28;20099;-82
2021/11/02 11:01:16;;;;;;;19.15;11.48;;;9.90;99.90;;;;;;5014040;28;20033;-83
2021/11/02 11:03:43;;;;;;;20.67;11.52;;;9.90;99.90;;;;;;5015016;28;20041;-89
2021/11/02 11:06:11;;;;;;;13.25;10.32;;;9.90;99.90;;;;;;4998672;28;20044;-84
2021/11/02 11:08:39;;;;;;;25.00;11.70;;;9.90;99.90;;;;;;5032632;28;20034;-83
2021/11/02 11:11:08;;;;;;;18.63;11.27;;;9.90;99.90;;;;;;4998732;28;20120;-83
2021/11/02 11:13:37;;;;;;;17.88;11.73;;;10.00;99.90;;;;;;4998752;28;20085;-83
2021/11/02 11:16:18;;;;;;;12.75;10.30;;;10.10;99.90;;;;;;5032314;28;20044;-84
2021/11/02 11:18:53;;;;;;;15.45;10.85;;;10.10;99.90;;;;;;5014860;28;20041;-84
2021/11/02 11:21:22;;;;;;;20.92;11.27;;;10.10;99.90;;;;;;5015297;28;20045;-82
2021/11/02 11:23:55;;;;;;;12.93;9.70;;;10.10;99.90;;;;;;5014202;28;20085;-85
2021/11/02 11:26:24;;;;;;;17.63;10.20;;;10.10;99.90;;;;;;4999048;28;20136;-83
2021/11/02 11:28:53;;;;;;;16.92;11.07;;;10.00;99.90;;;;;;5014231;28;20050;-83
2021/11/02 11:31:19;;;;;;;12.75;10.45;;;10.10;99.90;;;;;;5014765;28;20113;-87
2021/11/02 11:33:47;;;;;;;19.67;11.18;;;10.10;99.90;;;;;;4998815;28;20052;-86
2021/11/02 11:36:16;;;;;;;16.75;10.52;;;10.20;99.90;;;;;;4998567;28;20085;-86
2021/11/02 11:38:44;;;;;;;21.75;10.90;;;10.30;99.90;;;;;;4998845;28;20369;-86
2021/11/02 11:41:11;;;;;;;15.50;11.40;;;10.40;99.90;;;;;;4998852;28;20045;-86
2021/11/02 11:43:41;;;;;;;15.93;11.10;;;10.40;99.90;;;;;;4997174;28;20049;-85
2021/11/02 11:46:07;;;;;;;20.90;10.52;;;10.50;99.90;;;;;;4997986;28;20465;-84
2021/11/02 11:48:41;;;;;;;20.10;11.25;;;10.50;99.90;;;;;;4996336;28;20041;-84
2021/11/02 11:51:19;;;;;;;16.58;10.60;;;10.50;99.90;;;;;;5011927;28;20613;-86
2021/11/02 11:53:47;;;;;;;19.05;10.35;;;10.50;99.90;;;;;;5013456;28;20044;-86
2021/11/02 11:56:16;;;;;;;16.83;10.35;;;10.50;99.90;;;;;;5014113;28;20041;-84
2021/11/02 11:58:51;;;;;;;12.40;8.73;;;10.60;99.90;;;;;;5014445;28;20350;-83
2021/11/02 12:01:31;;;;;;;16.45;8.15;;;10.70;99.90;;;;;;5014140;28;20084;-85
2021/11/02 12:04:02;;;;;;;16.48;8.00;;;10.80;99.90;;;;;;5013180;28;20045;-85
2021/11/02 12:06:34;;;;;;;12.15;7.45;;;10.80;99.90;;;;;;5014098;28;20192;-85
2021/11/02 12:09:08;;;;;;;28.23;8.20;;;10.80;99.90;;;;;;5013556;28;20073;-87
2021/11/02 12:11:34;;;;;;;16.73;6.57;;;10.90;99.90;;;;;;4997731;28;20052;-84
2021/11/02 12:14:06;;;;;;;11.10;4.95;;;11.00;99.90;;;;;;5013862;28;20041;-84
2021/11/02 12:16:41;;;;;;;13.93;5.82;;;11.00;99.90;;;;;;5031516;28;20052;-84
2021/11/02 12:19:38;;;;;;;17.73;6.07;;;11.00;99.90;;;;;;5031165;28;20049;-85
2021/11/02 12:22:17;;;;;;;8.93;4.82;;;11.00;99.90;;;;;;5011204;28;20057;-84
2021/11/02 12:24:44;;;;;;;9.63;5.35;;;11.00;99.90;;;;;;5010102;28;20050;-83
2021/11/02 12:27:21;;;;;;;11.13;5.03;;;10.90;99.90;;;;;;4977891;28;20104;-85
2021/11/02 12:29:48;;;;;;;10.55;4.80;;;11.00;99.90;;;;;;5010516;28;20042;-84
2021/11/02 12:32:21;;;;;;;6.82;4.28;;;10.90;99.90;;;;;;5010208;28;20045;-85
2021/11/02 12:35:03;;;;;;;10.82;4.68;;;10.90;99.90;;;;;;5009683;28;20081;-86
2021/11/02 12:37:29;;;;;;;11.43;4.20;;;11.00;99.90;;;;;;5010473;28;20052;-85
2021/11/02 12:39:55;;;;;;;9.75;4.45;;;11.00;99.90;;;;;;4993799;28;20050;-84
2021/11/02 12:42:36;;;;;;;6.97;4.30;;;11.00;99.90;;;;;;5011520;28;20035;-85
2021/11/02 12:45:02;;;;;;;6.68;3.72;;;11.00;99.90;;;;;;5010204;28;20053;-84
2021/11/02 12:47:30;;;;;;;5.32;3.60;;;10.80;99.90;;;;;;4994132;28;20100;-85
2021/11/02 12:49:58;;;;;;;10.13;4.03;;;10.80;99.90;;;;;;5009877;28;20126;-87
2021/11/02 12:52:28;;;;;;;6.85;3.45;;;10.80;99.90;;;;;;4994063;28;20038;-85
2021/11/02 12:55:11;;;;;;;7.63;4.38;;;10.70;99.90;;;;;;5010134;28;20103;-84
2021/11/02 12:57:39;;;;;;;6.55;4.13;;;10.70;99.90;;;;;;5010451;28;20355;-85
2021/11/02 13:00:08;;;;;;;5.57;3.92;;;10.80;99.90;;;;;;4993754;28;20038;-84
2021/11/02 13:02:42;;;;;;;12.40;3.65;;;10.80;99.90;;;;;;5010173;28;20046;-86
2021/11/02 13:05:19;;;;;;;8.35;4.15;;;10.90;99.90;;;;;;5011343;28;20560;-85
2021/11/02 13:07:54;;;;;;;6.93;4.28;;;11.00;99.90;;;;;;4993417;28;20061;-85
2021/11/02 13:10:21;;;;;;;7.90;4.32;;;11.00;99.90;;;;;;4993626;28;20381;-85
2021/11/02 13:12:52;;;;;;;11.95;3.67;;;11.00;99.90;;;;;;5010284;28;20045;-84
2021/11/02 13:15:19;;;;;;;5.30;3.92;;;10.90;99.90;;;;;;4993226;28;20049;-85
2021/11/02 13:17:50;;;;;;;14.85;4.18;;;10.90;99.90;;;;;;4997307;28;20050;-85
2021/11/02 13:20:31;;;;;;;7.18;3.80;;;11.00;99.90;;;;;;5013680;28;20128;-85
2021/11/02 13:22:57;;;;;;;12.38;4.40;;;11.00;99.90;;;;;;5013892;28;20056;-85
2021/11/02 13:25:37;;;;;;;5.28;3.20;;;11.00;99.90;;;;;;5013678;28;20136;-85
2021/11/02 13:28:03;;;;;;;10.37;3.50;;;11.00;99.90;;;;;;5013617;28;20466;-85
2021/11/02 13:30:37;;;;;;;7.18;3.60;;;11.10;99.90;;;;;;5014353;28;20053;-85
2021/11/02 13:33:19;;;;;;;10.30;3.15;;;11.10;99.90;;;;;;5013577;28;20049;-85
2021/11/02 13:35:49;;;;;;;11.65;3.92;;;11.10;99.90;;;;;;4998059;28;20495;-85
2021/11/02 13:38:26;;;;;;;8.40;3.22;;;11.30;99.90;;;;;;5013701;28;20130;-85
2021/11/02 13:40:58;;;;;;;8.02;3.30;;;11.30;99.90;;;;;;5015044;28;20037;-85
2021/11/02 13:43:29;;;;;;;7.65;3.28;;;11.30;99.90;;;;;;4998141;28;20041;-85
2021/11/02 13:45:56;;;;;;;4.82;3.20;;;11.30;99.90;;;;;;5015073;28;20085;-85
2021/11/02 13:48:22;;;;;;;7.43;3.60;;;11.30;99.90;;;;;;4997333;28;20046;-85
2021/11/02 13:50:48;;;;;;;4.07;3.38;;;11.20;99.90;;;;;;5014923;28;20128;-84
2021/11/02 13:53:14;;;;;;;5.97;3.47;;;11.30;99.90;;;;;;4997059;28;20053;-85
2021/11/02 13:55:40;;;;;;;10.82;3.97;;;11.20;99.90;;;;;;5013627;28;20113;-85
2021/11/02 13:58:06;;;;;;;10.35;3.10;;;11.30;99.90;;;;;;5013376;28;20386;-85
2021/11/02 14:00:32;;;;;;;10.60;3.33;;;11.30;99.90;;;;;;5013552;28;20132;-85
2021/11/02 14:03:09;;;;;;;8.02;3.60;;;11.40;99.90;;;;;;4981030;28;20040;-87
2021/11/02 14:05:37;;;;;;;10.13;3.60;;;11.50;99.90;;;;;;5013708;28;20041;-85
2021/11/02 14:08:03;;;;;;;12.93;3.65;;;11.60;99.90;;;;;;5012873;28;20069;-85
2021/11/02 14:10:29;;;;;;;11.20;3.28;;;11.60;99.90;;;;;;5013583;28;20486;-85
2021/11/02 14:12:55;;;;;;;8.77;4.72;;;11.70;99.90;;;;;;5013368;28;20359;-85
2021/11/02 14:15:23;;;;;;;5.60;3.00;;;11.60;99.90;;;;;;5014081;28;20057;-84
2021/11/02 14:17:58;;;;;;;7.10;2.97;;;11.60;99.90;;;;;;5013309;28;20050;-84
2021/11/02 14:20:33;;;;;;;5.38;2.72;;;11.60;99.90;;;;;;5012572;28;20057;-85
2021/11/02 14:23:07;;;;;;;3.63;2.45;;;11.60;99.90;;;;;;5012863;28;20049;-88
2021/11/02 14:25:40;;;;;;;13.65;3.45;;;11.40;99.90;;;;;;5012990;28;20409;-85
2021/11/02 14:28:07;;;;;;;6.40;2.33;;;11.30;99.90;;;;;;5012002;28;20038;-84
2021/11/02 14:30:32;;;;;;;6.82;2.05;;;11.30;99.90;;;;;;5013215;28;20370;-85
2021/11/02 14:33:05;;;;;;;5.47;2.28;;;11.20;99.90;;;;;;5012816;28;20045;-84
2021/11/02 14:35:40;;;;;;;5.00;2.13;;;11.20;99.90;;;;;;5014165;28;20038;-85
2021/11/02 14:38:09;;;;;;;8.13;2.50;;;11.00;99.90;;;;;;5012643;28;20038;-85
2021/11/02 14:40:37;;;;;;;4.07;2.22;;;10.90;99.90;;;;;;5012823;28;20058;-84
2021/11/02 14:43:15;;;;;;;3.17;2.15;;;10.70;99.90;;;;;;5013487;28;20042;-88
2021/11/02 14:45:44;;;;;;;4.60;2.35;;;10.60;99.90;;;;;;4995210;28;20042;-85
2021/11/02 14:48:25;;;;;;;5.13;2.35;;;10.50;99.90;;;;;;4995910;28;20054;-85
2021/11/02 14:50:51;;;;;;;7.07;2.65;;;10.40;99.90;;;;;;5012641;28;20057;-85
2021/11/02 14:53:28;;;;;;;5.20;2.10;;;10.20;99.90;;;;;;5012248;28;20046;-85
2021/11/02 14:55:59;;;;;;;5.28;2.30;;;10.10;99.90;;;;;;5012824;28;20104;-84
2021/11/02 14:58:42;;;;;;;4.32;2.55;;;10.10;99.90;;;;;;5012641;28;20616;-85
2021/11/02 15:01:26;;;;;;;6.07;2.60;;;10.00;99.90;;;;;;4995740;28;20046;-85
2021/11/02 15:04:01;;;;;;;3.88;2.17;;;9.90;99.90;;;;;;5012507;28;20176;-85
2021/11/02 15:06:35;;;;;;;3.97;2.28;;;9.90;99.90;;;;;;4995767;28;20046;-85
2021/11/02 15:09:12;;;;;;;8.02;2.28;;;9.80;99.90;;;;;;5013103;28;20037;-85
2021/11/02 15:11:45;;;;;;;4.80;2.47;;;9.80;99.90;;;;;;4997450;28;20045;-85
2021/11/02 15:14:23;;;;;;;4.20;2.80;;;9.80;99.90;;;;;;4995436;28;20045;-84
2021/11/02 15:16:52;;;;;;;5.13;2.47;;;9.70;99.90;;;;;;5012183;28;20038;-85
2021/11/02 15:19:20;;;;;;;5.25;2.63;;;9.80;99.90;;;;;;5011804;28;20482;-85
2021/11/02 15:21:52;;;;;;;9.20;2.72;;;9.80;99.90;;;;;;5012100;28;20041;-85
2021/11/02 15:24:23;;;;;;;6.07;3.08;;;9.70;99.90;;;;;;5011316;28;20108;-85
2021/11/02 15:26:55;;;;;;;4.50;2.75;;;9.70;99.90;;;;;;5011126;28;20088;-85
2021/11/02 15:29:27;;;;;;;4.75;2.55;;;9.70;99.90;;;;;;5011324;28;20038;-85
2021/11/02 15:31:56;;;;;;;4.95;2.45;;;9.70;99.90;;;;;;5011949;28;20124;-85
2021/11/02 15:34:21;;;;;;;10.40;3.22;;;9.60;99.90;;;;;;5011455;28;20081;-86
2021/11/02 15:36:47;;;;;;;3.38;2.85;;;9.70;99.90;;;;;;5010405;28;20081;-86
2021/11/02 15:39:13;;;;;;;4.80;2.67;;;9.60;99.90;;;;;;4990898;28;20055;-85
2021/11/02 15:41:39;;;;;;;12.00;3.45;;;9.60;99.90;;;;;;5009613;28;20053;-85
2021/11/02 15:44:09;;;;;;;7.15;2.88;;;9.60;99.90;;;;;;5008614;28;20501;-86
2021/11/02 15:46:41;;;;;;;11.07;2.80;;;9.50;99.90;;;;;;5007899;28;20053;-88
2021/11/02 15:49:13;;;;;;;16.92;3.33;;;9.50;99.90;;;;;;5009262;28;20050;-87
2021/11/02 15:51:56;;;;;;;11.05;3.28;;;9.50;99.90;;;;;;5008742;28;20056;-86
2021/11/02 15:54:25;;;;;;;6.38;2.88;;;9.40;99.90;;;;;;4991755;28;20050;-85
2021/11/02 15:56:55;;;;;;;7.28;2.70;;;9.40;99.90;;;;;;5006328;28;20077;-86
2021/11/02 15:59:25;;;;;;;8.50;3.20;;;9.40;99.90;;;;;;5007929;28;20607;-85
2021/11/02 16:01:53;;;;;;;4.05;2.72;;;9.30;99.90;;;;;;5009276;28;20268;-85
2021/11/02 16:04:22;;;;;;;7.72;2.90;;;9.30;99.90;;;;;;5007927;28;20104;-85
2021/11/02 16:06:54;;;;;;;6.22;3.03;;;9.30;99.90;;;;;;5008152;28;20042;-87
2021/11/02 16:09:20;;;;;;;3.30;2.75;;;9.20;99.90;;;;;;5007297;28;20045;-85
2021/11/02 16:11:48;;;;;;;10.57;2.60;;;9.20;99.90;;;;;;4991850;28;20430;-86
2021/11/02 16:14:15;;;;;;;4.75;3.05;;;9.20;99.90;;;;;;4992067;28;20057;-86
2021/11/02 16:16:46;;;;;;;6.78;3.00;;;9.20;99.90;;;;;;4975662;28;20064;-87
2021/11/02 16:19:12;;;;;;;7.10;3.17;;;9.20;99.90;;;;;;4991483;28;20100;-89
2021/11/02 16:21:38;;;;;;;5.47;3.47;;;9.20;99.90;;;;;;5008175;28;20050;-88
2021/11/02 16:24:11;;;;;;;5.40;3.15;;;9.10;99.90;;;;;;5007340;28;20062;-87
2021/11/02 16:26:39;;;;;;;10.10;3.55;;;9.10;99.90;;;;;;5007706;28;20050;-88
2021/11/02 16:29:13;;;;;;;15.27;4.50;;;9.00;99.90;;;;;;5007734;28;20394;-88
2021/11/02 16:31:38;;;;;;;12.50;4.80;;;9.00;99.90;;;;;;5007718;28;20124;-87
2021/11/02 16:34:19;;;;;;;21.25;8.43;;;8.90;99.90;;;;;;5006880;28;20125;-87
2021/11/02 16:36:45;;;;;;;11.75;5.13;;;8.80;99.90;;;;;;5007762;28;20045;-84
2021/11/02 16:39:14;;;;;;;13.23;4.38;;;8.70;99.90;;;;;;5007193;28;20081;-87
2021/11/02 16:41:53;;;;;;;7.72;4.13;;;8.60;99.90;;;;;;5007364;28;20116;-85
2021/11/02 16:44:30;;;;;;;8.43;3.90;;;8.50;99.90;;;;;;4990675;28;20052;-86
2021/11/02 16:47:10;;;;;;;4.22;3.40;;;8.40;99.90;;;;;;5007715;28;20498;-86
2021/11/02 16:49:37;;;;;;;6.25;3.80;;;8.30;99.90;;;;;;5006685;28;20041;-85
2021/11/02 16:52:10;;;;;;;8.50;3.40;;;8.20;99.90;;;;;;5007416;28;20490;-84
2021/11/02 16:54:42;;;;;;;11.35;3.85;;;8.20;99.90;;;;;;5006872;28;20049;-87
2021/11/02 16:57:18;;;;;;;5.13;3.70;;;8.10;99.90;;;;;;5007580;28;20037;-86
2021/11/02 16:59:53;;;;;;;16.33;4.45;;;8.00;99.90;;;;;;4990871;28;20119;-85
2021/11/02 17:02:31;;;;;;;7.40;4.13;;;7.90;99.90;;;;;;4990676;28;20076;-86
2021/11/02 17:05:19;;;;;;;11.50;4.45;;;7.80;99.90;;;;;;5007329;28;20046;-85
2021/11/02 17:07:49;;;;;;;8.02;4.22;;;7.70;99.90;;;;;;5007342;28;20053;-86
2021/11/02 17:10:28;;;;;;;5.88;4.55;;;7.70;99.90;;;;;;4990146;28;20041;-87
2021/11/02 17:12:56;;;;;;;7.97;4.18;;;7.60;99.90;;;;;;4990903;28;20099;-84
2021/11/02 17:15:26;;;;;;;6.32;4.30;;;7.60;99.90;;;;;;5005655;28;20180;-86
2021/11/02 17:17:53;;;;;;;9.40;4.10;;;7.60;99.90;;;;;;5008847;28;20054;-92
2021/11/02 17:20:19;;;;;;;8.48;4.15;;;7.50;99.90;;;;;;5008970;28;20057;-88
2021/11/02 17:22:49;;;;;;;9.07;4.45;;;7.50;99.90;;;;;;5009666;28;20492;-90
2021/11/02 17:25:16;;;;;;;5.82;4.82;;;7.40;99.90;;;;;;4991412;28;20058;-89
2021/11/02 17:27:44;;;;;;;10.25;4.97;;;7.40;99.90;;;;;;5006761;28;20496;-87
2021/11/02 17:30:26;;;;;;;9.07;4.28;;;7.40;99.90;;;;;;5006739;28;20077;-87
2021/11/02 17:32:53;;;;;;;5.63;4.22;;;7.40;99.90;;;;;;5006950;28;20053;-87
2021/11/02 17:35:20;;;;;;;12.68;4.18;;;7.40;99.90;;;;;;5006097;28;20117;-86
2021/11/02 17:37:49;;;;;;;6.78;4.45;;;7.30;99.90;;;;;;5006726;28;20050;-86
2021/11/02 17:40:16;;;;;;;13.00;4.55;;;7.30;99.90;;;;;;5007140;28;20042;-86
2021/11/02 17:42:46;;;;;;;5.30;3.95;;;7.30;99.90;;;;;;5006793;28;20050;-86
2021/11/02 17:45:13;;;;;;;8.30;4.70;;;7.30;99.90;;;;;;5006765;28;20675;-87
2021/11/02 17:47:47;;;;;;;9.68;5.22;;;7.30;99.90;;;;;;5006434;28;20050;-86
2021/11/02 17:50:14;;;;;;;8.63;5.57;;;7.20;99.90;;;;;;5006649;28;20593;-87
2021/11/02 17:52:41;;;;;;;6.72;5.07;;;7.30;99.90;;;;;;4989611;28;20081;-86
2021/11/02 17:55:09;;;;;;;8.43;4.63;;;7.30;99.90;;;;;;5006736;28;20128;-87
2021/11/02 17:57:39;;;;;;;7.70;4.78;;;7.20;99.90;;;;;;4990120;28;20046;-86
2021/11/02 18:00:07;;;;;;;7.25;4.88;;;7.30;99.90;;;;;;5006850;28;20399;-86
2021/11/02 18:02:33;;;;;;;11.23;4.82;;;7.20;99.90;;;;;;5008135;28;20485;-86
2021/11/02 18:04:59;;;;;;;9.52;5.38;;;7.20;99.90;;;;;;5009060;28;20050;-86
2021/11/02 18:07:27;;;;;;;9.93;5.10;;;7.10;99.90;;;;;;5010773;28;20478;-87
2021/11/02 18:09:55;;;;;;;11.50;5.43;;;7.10;99.90;;;;;;5010060;28;20441;-86